sensor_id;sensor_type;location;lat;lon;timestamp;P1;durP1;ratioP1;P2;durP2;ratioP2
72408;SDS011;60402;48.082;11.628;2024-03-22T00:02:32;18.13;;;8.30;;
72408;SDS011;60402;48.082;11.628;2024-03-22T00:05:17;16.17;;;8.55;;
72408;SDS011;60402;48.082;11.628;2024-03-22T00:08:03;17.77;;;8.07;;
72408;SDS011;60402;48.082;11.628;2024-03-22T00:10:52;20.95;;;8.93;;
72408;SDS011;60402;48.082;11.628;2024-03-22T00:13:37;17.08;;;8.48;;
72408;SDS011;60402;48.082;11.628;2024-03-22T00:16:23;18.35;;;8.75;;
72408;SDS011;60402;48.082;11.628;2024-03-22T00:19:09;17.75;;;8.52;;
72408;SDS011;60402;48.082;11.628;2024-03-22T00:21:54;17.88;;;8.23;;
72408;SDS011;60402;48.082;11.628;2024-03-22T00:24:40;19.35;;;8.85;;
72408;SDS011;60402;48.082;11.628;2024-03-22T00:27:26;15.98;;;7.85;;
72408;SDS011;60402;48.082;11.628;2024-03-22T00:30:11;18.70;;;9.07;;
72408;SDS011;60402;48.082;11.628;2024-03-22T00:32:57;18.90;;;9.32;;
72408;SDS011;60402;48.082;11.628;2024-03-22T00:35:43;17.65;;;8.68;;
72408;SDS011;60402;48.082;11.628;2024-03-22T00:38:28;19.38;;;9.13;;
72408;SDS011;60402;48.082;11.628;2024-03-22T00:41:14;17.08;;;8.30;;
72408;SDS011;60402;48.082;11.628;2024-03-22T00:44:00;21.00;;;9.13;;
72408;SDS011;60402;48.082;11.628;2024-03-22T00:46:46;17.55;;;8.77;;
72408;SDS011;60402;48.082;11.628;2024-03-22T00:49:31;19.92;;;9.32;;
72408;SDS011;60402;48.082;11.628;2024-03-22T00:52:17;21.15;;;9.82;;
72408;SDS011;60402;48.082;11.628;2024-03-22T00:55:03;17.85;;;8.95;;
72408;SDS011;60402;48.082;11.628;2024-03-22T00:57:49;20.80;;;9.00;;
72408;SDS011;60402;48.082;11.628;2024-03-22T01:00:35;16.58;;;8.35;;
72408;SDS011;60402;48.082;11.628;2024-03-22T01:03:22;18.70;;;8.73;;
72408;SDS011;60402;48.082;11.628;2024-03-22T01:06:08;18.15;;;9.15;;
72408;SDS011;60402;48.082;11.628;2024-03-22T01:08:54;18.40;;;9.00;;
72408;SDS011;60402;48.082;11.628;2024-03-22T01:11:40;20.42;;;9.00;;
72408;SDS011;60402;48.082;11.628;2024-03-22T01:14:25;16.98;;;8.93;;
72408;SDS011;60402;48.082;11.628;2024-03-22T01:17:11;18.20;;;8.80;;
72408;SDS011;60402;48.082;11.628;2024-03-22T01:19:57;19.00;;;8.18;;
72408;SDS011;60402;48.082;11.628;2024-03-22T01:22:43;17.38;;;8.48;;
72408;SDS011;60402;48.082;11.628;2024-03-22T01:25:28;16.55;;;7.63;;
72408;SDS011;60402;48.082;11.628;2024-03-22T01:28:14;18.63;;;8.60;;
72408;SDS011;60402;48.082;11.628;2024-03-22T01:31:00;20.15;;;8.73;;
72408;SDS011;60402;48.082;11.628;2024-03-22T01:33:46;19.42;;;8.95;;
72408;SDS011;60402;48.082;11.628;2024-03-22T01:36:32;16.27;;;7.97;;
72408;SDS011;60402;48.082;11.628;2024-03-22T01:39:21;18.45;;;8.80;;
72408;SDS011;60402;48.082;11.628;2024-03-22T01:42:07;16.98;;;7.95;;
72408;SDS011;60402;48.082;11.628;2024-03-22T01:44:52;17.60;;;8.95;;
72408;SDS011;60402;48.082;11.628;2024-03-22T01:47:38;19.92;;;8.10;;
72408;SDS011;60402;48.082;11.628;2024-03-22T01:50:24;17.73;;;7.90;;
72408;SDS011;60402;48.082;11.628;2024-03-22T01:53:09;17.67;;;8.15;;
72408;SDS011;60402;48.082;11.628;2024-03-22T01:55:55;19.05;;;8.43;;
72408;SDS011;60402;48.082;11.628;2024-03-22T01:58:41;20.00;;;8.77;;
72408;SDS011;60402;48.082;11.628;2024-03-22T02:01:27;20.30;;;8.98;;
72408;SDS011;60402;48.082;11.628;2024-03-22T02:04:13;18.23;;;8.85;;
72408;SDS011;60402;48.082;11.628;2024-03-22T02:06:59;18.15;;;8.65;;
72408;SDS011;60402;48.082;11.628;2024-03-22T02:09:45;20.73;;;8.88;;
72408;SDS011;60402;48.082;11.628;2024-03-22T02:12:31;16.48;;;8.40;;
72408;SDS011;60402;48.082;11.628;2024-03-22T02:15:16;18.05;;;8.80;;
72408;SDS011;60402;48.082;11.628;2024-03-22T02:18:02;18.70;;;8.43;;
72408;SDS011;60402;48.082;11.628;2024-03-22T02:20:48;22.30;;;8.70;;
72408;SDS011;60402;48.082;11.628;2024-03-22T02:23:37;17.13;;;8.02;;
72408;SDS011;60402;48.082;11.628;2024-03-22T02:26:23;20.90;;;9.13;;
72408;SDS011;60402;48.082;11.628;2024-03-22T02:29:09;18.40;;;8.57;;
72408;SDS011;60402;48.082;11.628;2024-03-22T02:31:54;20.50;;;9.30;;
72408;SDS011;60402;48.082;11.628;2024-03-22T02:34:40;19.30;;;7.88;;
72408;SDS011;60402;48.082;11.628;2024-03-22T02:37:26;20.23;;;8.40;;
72408;SDS011;60402;48.082;11.628;2024-03-22T02:40:13;17.15;;;7.90;;
72408;SDS011;60402;48.082;11.628;2024-03-22T02:42:59;18.65;;;8.75;;
72408;SDS011;60402;48.082;11.628;2024-03-22T02:45:45;20.80;;;9.20;;
72408;SDS011;60402;48.082;11.628;2024-03-22T02:48:31;20.42;;;8.98;;
72408;SDS011;60402;48.082;11.628;2024-03-22T02:51:17;19.42;;;9.13;;
72408;SDS011;60402;48.082;11.628;2024-03-22T02:54:02;19.02;;;8.80;;
72408;SDS011;60402;48.082;11.628;2024-03-22T02:56:48;19.90;;;8.57;;
72408;SDS011;60402;48.082;11.628;2024-03-22T02:59:34;19.25;;;8.82;;
72408;SDS011;60402;48.082;11.628;2024-03-22T03:02:19;22.50;;;9.77;;
72408;SDS011;60402;48.082;11.628;2024-03-22T03:05:05;20.42;;;9.52;;
72408;SDS011;60402;48.082;11.628;2024-03-22T03:07:51;22.83;;;10.30;;
72408;SDS011;60402;48.082;11.628;2024-03-22T03:10:37;21.25;;;9.55;;
72408;SDS011;60402;48.082;11.628;2024-03-22T03:13:22;19.10;;;8.45;;
72408;SDS011;60402;48.082;11.628;2024-03-22T03:16:08;18.90;;;9.20;;
72408;SDS011;60402;48.082;11.628;2024-03-22T03:18:54;19.40;;;8.90;;
72408;SDS011;60402;48.082;11.628;2024-03-22T03:21:39;19.50;;;9.07;;
72408;SDS011;60402;48.082;11.628;2024-03-22T03:24:25;22.55;;;9.20;;
72408;SDS011;60402;48.082;11.628;2024-03-22T03:27:11;20.05;;;9.57;;
72408;SDS011;60402;48.082;11.628;2024-03-22T03:29:57;20.55;;;9.32;;
72408;SDS011;60402;48.082;11.628;2024-03-22T03:32:43;19.90;;;9.20;;
72408;SDS011;60402;48.082;11.628;2024-03-22T03:35:28;19.77;;;9.57;;
72408;SDS011;60402;48.082;11.628;2024-03-22T03:38:14;17.02;;;8.55;;
72408;SDS011;60402;48.082;11.628;2024-03-22T03:41:00;19.63;;;8.93;;
72408;SDS011;60402;48.082;11.628;2024-03-22T03:43:46;17.55;;;8.32;;
72408;SDS011;60402;48.082;11.628;2024-03-22T03:46:31;18.30;;;8.25;;
72408;SDS011;60402;48.082;11.628;2024-03-22T03:49:17;21.52;;;8.40;;
72408;SDS011;60402;48.082;11.628;2024-03-22T03:52:02;19.48;;;8.55;;
72408;SDS011;60402;48.082;11.628;2024-03-22T03:54:48;20.52;;;9.10;;
72408;SDS011;60402;48.082;11.628;2024-03-22T03:57:34;19.60;;;9.02;;
72408;SDS011;60402;48.082;11.628;2024-03-22T04:00:19;17.35;;;7.95;;
72408;SDS011;60402;48.082;11.628;2024-03-22T04:03:05;22.27;;;8.90;;
72408;SDS011;60402;48.082;11.628;2024-03-22T04:05:57;20.45;;;8.93;;
72408;SDS011;60402;48.082;11.628;2024-03-22T04:08:43;20.08;;;8.98;;
72408;SDS011;60402;48.082;11.628;2024-03-22T04:11:29;21.05;;;9.23;;
72408;SDS011;60402;48.082;11.628;2024-03-22T04:14:14;21.98;;;9.00;;
72408;SDS011;60402;48.082;11.628;2024-03-22T04:17:00;19.48;;;8.15;;
72408;SDS011;60402;48.082;11.628;2024-03-22T04:19:46;20.10;;;8.70;;
72408;SDS011;60402;48.082;11.628;2024-03-22T04:22:31;21.42;;;9.27;;
72408;SDS011;60402;48.082;11.628;2024-03-22T04:25:17;18.05;;;8.65;;
72408;SDS011;60402;48.082;11.628;2024-03-22T04:28:03;19.00;;;8.63;;
72408;SDS011;60402;48.082;11.628;2024-03-22T04:31:02;19.52;;;8.77;;
72408;SDS011;60402;48.082;11.628;2024-03-22T04:33:49;18.65;;;8.68;;
72408;SDS011;60402;48.082;11.628;2024-03-22T04:36:34;15.88;;;6.97;;
72408;SDS011;60402;48.082;11.628;2024-03-22T04:39:20;17.15;;;8.20;;
72408;SDS011;60402;48.082;11.628;2024-03-22T04:42:06;19.02;;;7.90;;
72408;SDS011;60402;48.082;11.628;2024-03-22T04:44:52;16.30;;;7.60;;
72408;SDS011;60402;48.082;11.628;2024-03-22T04:47:38;18.63;;;8.27;;
72408;SDS011;60402;48.082;11.628;2024-03-22T04:50:23;19.42;;;8.63;;
72408;SDS011;60402;48.082;11.628;2024-03-22T04:53:09;17.80;;;7.70;;
72408;SDS011;60402;48.082;11.628;2024-03-22T04:55:54;17.13;;;7.88;;
72408;SDS011;60402;48.082;11.628;2024-03-22T04:58:40;18.30;;;8.27;;
72408;SDS011;60402;48.082;11.628;2024-03-22T05:01:26;17.52;;;7.63;;
72408;SDS011;60402;48.082;11.628;2024-03-22T05:04:11;21.27;;;8.23;;
72408;SDS011;60402;48.082;11.628;2024-03-22T05:06:57;17.70;;;8.02;;
72408;SDS011;60402;48.082;11.628;2024-03-22T05:09:43;20.80;;;8.55;;
72408;SDS011;60402;48.082;11.628;2024-03-22T05:12:28;19.75;;;8.60;;
72408;SDS011;60402;48.082;11.628;2024-03-22T05:15:14;18.33;;;8.25;;
72408;SDS011;60402;48.082;11.628;2024-03-22T05:18:00;19.40;;;7.60;;
72408;SDS011;60402;48.082;11.628;2024-03-22T05:20:46;18.73;;;8.32;;
72408;SDS011;60402;48.082;11.628;2024-03-22T05:23:31;18.20;;;7.88;;
72408;SDS011;60402;48.082;11.628;2024-03-22T05:26:17;16.98;;;7.35;;
72408;SDS011;60402;48.082;11.628;2024-03-22T05:29:06;21.65;;;8.90;;
72408;SDS011;60402;48.082;11.628;2024-03-22T05:31:51;18.80;;;8.63;;
72408;SDS011;60402;48.082;11.628;2024-03-22T05:34:37;15.93;;;7.47;;
72408;SDS011;60402;48.082;11.628;2024-03-22T05:37:23;17.13;;;7.55;;
72408;SDS011;60402;48.082;11.628;2024-03-22T05:40:09;18.30;;;7.47;;
72408;SDS011;60402;48.082;11.628;2024-03-22T05:42:55;17.88;;;7.70;;
72408;SDS011;60402;48.082;11.628;2024-03-22T05:45:41;15.75;;;7.70;;
72408;SDS011;60402;48.082;11.628;2024-03-22T05:48:27;16.45;;;6.80;;
72408;SDS011;60402;48.082;11.628;2024-03-22T05:51:13;18.17;;;7.75;;
72408;SDS011;60402;48.082;11.628;2024-03-22T05:53:59;15.23;;;6.63;;
72408;SDS011;60402;48.082;11.628;2024-03-22T05:56:45;15.38;;;7.00;;
72408;SDS011;60402;48.082;11.628;2024-03-22T05:59:31;16.00;;;7.13;;
72408;SDS011;60402;48.082;11.628;2024-03-22T06:02:17;15.23;;;7.18;;
72408;SDS011;60402;48.082;11.628;2024-03-22T06:05:02;14.82;;;6.93;;
72408;SDS011;60402;48.082;11.628;2024-03-22T06:07:48;15.10;;;7.70;;
72408;SDS011;60402;48.082;11.628;2024-03-22T06:10:34;15.95;;;7.50;;
72408;SDS011;60402;48.082;11.628;2024-03-22T06:13:20;13.52;;;6.43;;
72408;SDS011;60402;48.082;11.628;2024-03-22T06:16:05;15.10;;;6.63;;
72408;SDS011;60402;48.082;11.628;2024-03-22T06:18:51;16.13;;;7.60;;
72408;SDS011;60402;48.082;11.628;2024-03-22T06:21:37;17.90;;;7.75;;
72408;SDS011;60402;48.082;11.628;2024-03-22T06:24:23;17.27;;;7.50;;
72408;SDS011;60402;48.082;11.628;2024-03-22T06:27:08;17.00;;;7.35;;
72408;SDS011;60402;48.082;11.628;2024-03-22T06:29:54;16.65;;;6.80;;
72408;SDS011;60402;48.082;11.628;2024-03-22T06:32:40;14.00;;;6.65;;
72408;SDS011;60402;48.082;11.628;2024-03-22T06:35:25;12.80;;;6.35;;
72408;SDS011;60402;48.082;11.628;2024-03-22T06:38:11;15.75;;;6.50;;
72408;SDS011;60402;48.082;11.628;2024-03-22T06:40:56;12.35;;;5.88;;
72408;SDS011;60402;48.082;11.628;2024-03-22T06:43:44;15.98;;;6.75;;
72408;SDS011;60402;48.082;11.628;2024-03-22T06:46:29;15.10;;;5.97;;
72408;SDS011;60402;48.082;11.628;2024-03-22T06:49:15;14.35;;;6.63;;
72408;SDS011;60402;48.082;11.628;2024-03-22T06:52:01;12.68;;;5.78;;
72408;SDS011;60402;48.082;11.628;2024-03-22T06:54:46;11.82;;;5.78;;
72408;SDS011;60402;48.082;11.628;2024-03-22T06:57:32;13.65;;;6.60;;
72408;SDS011;60402;48.082;11.628;2024-03-22T07:00:19;12.45;;;6.85;;
72408;SDS011;60402;48.082;11.628;2024-03-22T07:03:05;15.15;;;6.25;;
72408;SDS011;60402;48.082;11.628;2024-03-22T07:05:50;9.23;;;4.50;;
72408;SDS011;60402;48.082;11.628;2024-03-22T07:08:36;9.93;;;4.55;;
72408;SDS011;60402;48.082;11.628;2024-03-22T07:11:21;7.10;;;3.78;;
72408;SDS011;60402;48.082;11.628;2024-03-22T07:14:07;9.25;;;4.25;;
72408;SDS011;60402;48.082;11.628;2024-03-22T07:16:53;7.53;;;3.83;;
72408;SDS011;60402;48.082;11.628;2024-03-22T07:19:39;7.60;;;3.70;;
72408;SDS011;60402;48.082;11.628;2024-03-22T07:22:24;6.45;;;3.30;;
72408;SDS011;60402;48.082;11.628;2024-03-22T07:25:11;7.30;;;3.42;;
72408;SDS011;60402;48.082;11.628;2024-03-22T07:27:57;7.07;;;3.80;;
72408;SDS011;60402;48.082;11.628;2024-03-22T07:30:42;7.95;;;3.30;;
72408;SDS011;60402;48.082;11.628;2024-03-22T07:33:28;7.32;;;3.72;;
72408;SDS011;60402;48.082;11.628;2024-03-22T07:36:15;7.78;;;3.40;;
72408;SDS011;60402;48.082;11.628;2024-03-22T07:39:02;8.98;;;3.15;;
72408;SDS011;60402;48.082;11.628;2024-03-22T07:41:49;5.65;;;2.83;;
72408;SDS011;60402;48.082;11.628;2024-03-22T07:44:35;6.15;;;2.92;;
72408;SDS011;60402;48.082;11.628;2024-03-22T07:47:20;6.70;;;3.42;;
72408;SDS011;60402;48.082;11.628;2024-03-22T07:50:06;7.40;;;3.00;;
72408;SDS011;60402;48.082;11.628;2024-03-22T07:52:52;6.57;;;3.22;;
72408;SDS011;60402;48.082;11.628;2024-03-22T07:55:38;7.55;;;3.55;;
72408;SDS011;60402;48.082;11.628;2024-03-22T07:58:23;6.68;;;3.33;;
72408;SDS011;60402;48.082;11.628;2024-03-22T08:01:09;7.78;;;3.60;;
72408;SDS011;60402;48.082;11.628;2024-03-22T08:03:55;8.13;;;3.20;;
72408;SDS011;60402;48.082;11.628;2024-03-22T08:06:40;7.57;;;3.25;;
72408;SDS011;60402;48.082;11.628;2024-03-22T08:09:26;7.35;;;3.28;;
72408;SDS011;60402;48.082;11.628;2024-03-22T08:12:11;6.30;;;2.90;;
72408;SDS011;60402;48.082;11.628;2024-03-22T08:14:57;5.05;;;2.88;;
72408;SDS011;60402;48.082;11.628;2024-03-22T08:17:43;5.90;;;2.90;;
72408;SDS011;60402;48.082;11.628;2024-03-22T08:20:28;7.05;;;2.90;;
72408;SDS011;60402;48.082;11.628;2024-03-22T08:23:15;6.35;;;2.70;;
72408;SDS011;60402;48.082;11.628;2024-03-22T08:26:03;5.45;;;2.67;;
72408;SDS011;60402;48.082;11.628;2024-03-22T08:28:49;4.82;;;2.55;;
72408;SDS011;60402;48.082;11.628;2024-03-22T08:31:34;4.65;;;2.45;;
72408;SDS011;60402;48.082;11.628;2024-03-22T08:34:23;4.07;;;2.10;;
72408;SDS011;60402;48.082;11.628;2024-03-22T08:37:08;5.28;;;2.22;;
72408;SDS011;60402;48.082;11.628;2024-03-22T08:39:54;4.10;;;2.15;;
72408;SDS011;60402;48.082;11.628;2024-03-22T08:42:40;4.95;;;2.20;;
72408;SDS011;60402;48.082;11.628;2024-03-22T08:45:25;5.45;;;2.33;;
72408;SDS011;60402;48.082;11.628;2024-03-22T08:48:11;4.88;;;2.33;;
72408;SDS011;60402;48.082;11.628;2024-03-22T08:50:57;4.00;;;1.98;;
72408;SDS011;60402;48.082;11.628;2024-03-22T08:53:43;5.07;;;1.90;;
72408;SDS011;60402;48.082;11.628;2024-03-22T08:56:28;4.13;;;1.92;;
72408;SDS011;60402;48.082;11.628;2024-03-22T08:59:14;4.07;;;2.05;;
72408;SDS011;60402;48.082;11.628;2024-03-22T09:01:59;4.85;;;2.30;;
72408;SDS011;60402;48.082;11.628;2024-03-22T09:04:45;4.63;;;2.00;;
72408;SDS011;60402;48.082;11.628;2024-03-22T09:07:32;4.07;;;2.10;;
72408;SDS011;60402;48.082;11.628;2024-03-22T09:10:17;4.82;;;2.70;;
72408;SDS011;60402;48.082;11.628;2024-03-22T09:13:03;4.88;;;2.20;;
72408;SDS011;60402;48.082;11.628;2024-03-22T09:15:49;5.57;;;2.47;;
72408;SDS011;60402;48.082;11.628;2024-03-22T09:18:41;4.38;;;2.05;;
72408;SDS011;60402;48.082;11.628;2024-03-22T09:21:27;4.25;;;2.20;;
72408;SDS011;60402;48.082;11.628;2024-03-22T09:24:13;4.57;;;2.17;;
72408;SDS011;60402;48.082;11.628;2024-03-22T09:26:59;4.85;;;2.33;;
72408;SDS011;60402;48.082;11.628;2024-03-22T09:29:44;4.65;;;2.10;;
72408;SDS011;60402;48.082;11.628;2024-03-22T09:32:30;4.10;;;2.17;;
72408;SDS011;60402;48.082;11.628;2024-03-22T09:35:16;4.78;;;2.00;;
72408;SDS011;60402;48.082;11.628;2024-03-22T09:38:03;3.83;;;2.28;;
72408;SDS011;60402;48.082;11.628;2024-03-22T09:40:49;6.82;;;2.60;;
72408;SDS011;60402;48.082;11.628;2024-03-22T09:43:39;4.85;;;2.08;;
72408;SDS011;60402;48.082;11.628;2024-03-22T09:46:25;4.28;;;2.08;;
72408;SDS011;60402;48.082;11.628;2024-03-22T09:49:11;6.07;;;2.50;;
72408;SDS011;60402;48.082;11.628;2024-03-22T09:51:58;5.03;;;2.60;;
72408;SDS011;60402;48.082;11.628;2024-03-22T09:54:44;5.95;;;2.22;;
72408;SDS011;60402;48.082;11.628;2024-03-22T09:57:30;4.95;;;2.33;;
72408;SDS011;60402;48.082;11.628;2024-03-22T10:00:18;5.38;;;2.33;;
72408;SDS011;60402;48.082;11.628;2024-03-22T10:03:05;4.43;;;2.10;;
72408;SDS011;60402;48.082;11.628;2024-03-22T10:05:51;5.97;;;2.20;;
72408;SDS011;60402;48.082;11.628;2024-03-22T10:08:38;6.78;;;2.50;;
72408;SDS011;60402;48.082;11.628;2024-03-22T10:11:23;7.90;;;2.60;;
72408;SDS011;60402;48.082;11.628;2024-03-22T10:14:11;7.95;;;2.35;;
72408;SDS011;60402;48.082;11.628;2024-03-22T10:16:57;4.95;;;2.33;;
72408;SDS011;60402;48.082;11.628;2024-03-22T10:19:43;7.53;;;2.30;;
72408;SDS011;60402;48.082;11.628;2024-03-22T10:22:29;4.90;;;2.60;;
72408;SDS011;60402;48.082;11.628;2024-03-22T10:25:15;7.35;;;2.22;;
72408;SDS011;60402;48.082;11.628;2024-03-22T10:28:01;5.07;;;2.28;;
72408;SDS011;60402;48.082;11.628;2024-03-22T10:30:48;4.88;;;2.28;;
72408;SDS011;60402;48.082;11.628;2024-03-22T10:33:36;5.60;;;2.33;;
72408;SDS011;60402;48.082;11.628;2024-03-22T10:36:23;6.40;;;2.42;;
72408;SDS011;60402;48.082;11.628;2024-03-22T10:39:09;4.65;;;2.15;;
72408;SDS011;60402;48.082;11.628;2024-03-22T10:41:58;4.80;;;2.30;;
72408;SDS011;60402;48.082;11.628;2024-03-22T10:44:44;4.40;;;2.28;;
72408;SDS011;60402;48.082;11.628;2024-03-22T10:47:30;8.13;;;2.65;;
72408;SDS011;60402;48.082;11.628;2024-03-22T10:50:17;5.28;;;2.65;;
72408;SDS011;60402;48.082;11.628;2024-03-22T10:53:06;4.93;;;2.10;;
72408;SDS011;60402;48.082;11.628;2024-03-22T10:55:54;6.00;;;2.53;;
72408;SDS011;60402;48.082;11.628;2024-03-22T10:58:45;4.63;;;2.42;;
72408;SDS011;60402;48.082;11.628;2024-03-22T11:01:31;5.72;;;2.70;;
72408;SDS011;60402;48.082;11.628;2024-03-22T11:04:22;6.32;;;2.80;;
72408;SDS011;60402;48.082;11.628;2024-03-22T11:07:19;5.40;;;2.50;;
72408;SDS011;60402;48.082;11.628;2024-03-22T11:10:05;6.95;;;2.80;;
72408;SDS011;60402;48.082;11.628;2024-03-22T11:12:52;5.45;;;2.60;;
72408;SDS011;60402;48.082;11.628;2024-03-22T11:15:38;5.47;;;2.58;;
72408;SDS011;60402;48.082;11.628;2024-03-22T11:18:24;6.75;;;3.00;;
72408;SDS011;60402;48.082;11.628;2024-03-22T11:21:09;6.30;;;3.05;;
72408;SDS011;60402;48.082;11.628;2024-03-22T11:23:55;5.13;;;2.38;;
72408;SDS011;60402;48.082;11.628;2024-03-22T11:26:41;6.07;;;2.72;;
72408;SDS011;60402;48.082;11.628;2024-03-22T11:29:29;5.82;;;2.40;;
72408;SDS011;60402;48.082;11.628;2024-03-22T11:32:15;5.15;;;2.33;;
72408;SDS011;60402;48.082;11.628;2024-03-22T11:35:01;6.28;;;2.28;;
72408;SDS011;60402;48.082;11.628;2024-03-22T11:37:46;5.63;;;2.83;;
72408;SDS011;60402;48.082;11.628;2024-03-22T11:40:32;5.07;;;2.72;;
72408;SDS011;60402;48.082;11.628;2024-03-22T11:43:19;6.00;;;2.40;;
72408;SDS011;60402;48.082;11.628;2024-03-22T11:46:06;7.90;;;2.75;;
72408;SDS011;60402;48.082;11.628;2024-03-22T11:48:52;5.32;;;2.45;;
72408;SDS011;60402;48.082;11.628;2024-03-22T11:51:38;4.93;;;2.33;;
72408;SDS011;60402;48.082;11.628;2024-03-22T11:54:24;5.40;;;2.80;;
72408;SDS011;60402;48.082;11.628;2024-03-22T11:57:10;5.40;;;2.50;;
72408;SDS011;60402;48.082;11.628;2024-03-22T11:59:58;6.10;;;2.70;;
72408;SDS011;60402;48.082;11.628;2024-03-22T12:02:45;7.10;;;2.72;;
72408;SDS011;60402;48.082;11.628;2024-03-22T12:05:31;7.07;;;3.10;;
72408;SDS011;60402;48.082;11.628;2024-03-22T12:08:20;5.80;;;2.55;;
72408;SDS011;60402;48.082;11.628;2024-03-22T12:11:09;5.15;;;2.53;;
72408;SDS011;60402;48.082;11.628;2024-03-22T12:13:55;5.80;;;2.70;;
72408;SDS011;60402;48.082;11.628;2024-03-22T12:16:41;6.97;;;2.70;;
72408;SDS011;60402;48.082;11.628;2024-03-22T12:19:27;9.75;;;3.50;;
72408;SDS011;60402;48.082;11.628;2024-03-22T12:22:12;7.93;;;3.20;;
72408;SDS011;60402;48.082;11.628;2024-03-22T12:24:58;7.30;;;3.25;;
72408;SDS011;60402;48.082;11.628;2024-03-22T12:27:46;7.68;;;3.10;;
72408;SDS011;60402;48.082;11.628;2024-03-22T12:30:31;6.65;;;3.13;;
72408;SDS011;60402;48.082;11.628;2024-03-22T12:33:18;6.18;;;3.10;;
72408;SDS011;60402;48.082;11.628;2024-03-22T12:36:05;5.10;;;2.78;;
72408;SDS011;60402;48.082;11.628;2024-03-22T12:38:50;6.95;;;2.63;;
72408;SDS011;60402;48.082;11.628;2024-03-22T12:41:36;6.65;;;2.63;;
72408;SDS011;60402;48.082;11.628;2024-03-22T12:44:22;7.35;;;2.13;;
72408;SDS011;60402;48.082;11.628;2024-03-22T12:47:08;4.90;;;2.63;;
72408;SDS011;60402;48.082;11.628;2024-03-22T12:49:54;4.60;;;2.13;;
72408;SDS011;60402;48.082;11.628;2024-03-22T12:52:39;6.40;;;2.60;;
72408;SDS011;60402;48.082;11.628;2024-03-22T12:55:25;4.78;;;2.50;;
72408;SDS011;60402;48.082;11.628;2024-03-22T12:58:11;5.55;;;2.55;;
72408;SDS011;60402;48.082;11.628;2024-03-22T13:00:57;7.22;;;3.33;;
72408;SDS011;60402;48.082;11.628;2024-03-22T13:03:43;6.70;;;2.60;;
72408;SDS011;60402;48.082;11.628;2024-03-22T13:06:29;4.85;;;2.45;;
72408;SDS011;60402;48.082;11.628;2024-03-22T13:09:14;4.40;;;2.20;;
72408;SDS011;60402;48.082;11.628;2024-03-22T13:12:01;4.53;;;2.10;;
72408;SDS011;60402;48.082;11.628;2024-03-22T13:14:46;4.53;;;1.90;;
72408;SDS011;60402;48.082;11.628;2024-03-22T13:17:33;5.10;;;2.25;;
72408;SDS011;60402;48.082;11.628;2024-03-22T13:20:18;3.85;;;1.70;;
72408;SDS011;60402;48.082;11.628;2024-03-22T13:23:04;4.57;;;1.67;;
72408;SDS011;60402;48.082;11.628;2024-03-22T13:25:51;3.95;;;1.63;;
72408;SDS011;60402;48.082;11.628;2024-03-22T13:28:37;4.95;;;1.63;;
72408;SDS011;60402;48.082;11.628;2024-03-22T13:31:22;5.60;;;1.80;;
72408;SDS011;60402;48.082;11.628;2024-03-22T13:34:08;3.63;;;1.67;;
72408;SDS011;60402;48.082;11.628;2024-03-22T13:36:54;4.28;;;1.50;;
72408;SDS011;60402;48.082;11.628;2024-03-22T13:39:39;3.60;;;1.65;;
72408;SDS011;60402;48.082;11.628;2024-03-22T13:42:25;3.97;;;1.77;;
72408;SDS011;60402;48.082;11.628;2024-03-22T13:45:11;4.82;;;1.60;;
72408;SDS011;60402;48.082;11.628;2024-03-22T13:47:57;5.65;;;1.58;;
72408;SDS011;60402;48.082;11.628;2024-03-22T13:50:43;3.45;;;1.50;;
72408;SDS011;60402;48.082;11.628;2024-03-22T13:53:29;3.72;;;1.48;;
72408;SDS011;60402;48.082;11.628;2024-03-22T13:56:14;5.00;;;1.60;;
72408;SDS011;60402;48.082;11.628;2024-03-22T13:59:00;4.30;;;2.03;;
72408;SDS011;60402;48.082;11.628;2024-03-22T14:01:46;3.53;;;1.42;;
72408;SDS011;60402;48.082;11.628;2024-03-22T14:04:32;3.67;;;1.60;;
72408;SDS011;60402;48.082;11.628;2024-03-22T14:07:18;3.63;;;1.52;;
72408;SDS011;60402;48.082;11.628;2024-03-22T14:10:04;3.25;;;1.58;;
72408;SDS011;60402;48.082;11.628;2024-03-22T14:12:50;4.55;;;1.52;;
72408;SDS011;60402;48.082;11.628;2024-03-22T14:15:36;3.28;;;1.35;;
72408;SDS011;60402;48.082;11.628;2024-03-22T14:18:22;3.28;;;1.63;;
72408;SDS011;60402;48.082;11.628;2024-03-22T14:21:08;3.10;;;1.70;;
72408;SDS011;60402;48.082;11.628;2024-03-22T14:23:54;2.80;;;1.40;;
72408;SDS011;60402;48.082;11.628;2024-03-22T14:26:40;3.40;;;1.75;;
72408;SDS011;60402;48.082;11.628;2024-03-22T14:29:29;4.43;;;1.80;;
72408;SDS011;60402;48.082;11.628;2024-03-22T14:32:14;3.83;;;1.83;;
72408;SDS011;60402;48.082;11.628;2024-03-22T14:35:00;3.85;;;1.52;;
72408;SDS011;60402;48.082;11.628;2024-03-22T14:37:46;2.40;;;1.33;;
72408;SDS011;60402;48.082;11.628;2024-03-22T14:40:31;3.72;;;1.55;;
72408;SDS011;60402;48.082;11.628;2024-03-22T14:43:22;2.80;;;1.30;;
72408;SDS011;60402;48.082;11.628;2024-03-22T14:46:09;5.18;;;1.95;;
72408;SDS011;60402;48.082;11.628;2024-03-22T14:48:54;4.60;;;1.52;;
72408;SDS011;60402;48.082;11.628;2024-03-22T14:51:40;2.25;;;1.20;;
72408;SDS011;60402;48.082;11.628;2024-03-22T14:54:26;2.95;;;1.27;;
72408;SDS011;60402;48.082;11.628;2024-03-22T14:57:12;2.75;;;1.20;;
72408;SDS011;60402;48.082;11.628;2024-03-22T14:59:58;4.18;;;1.55;;
72408;SDS011;60402;48.082;11.628;2024-03-22T15:02:43;3.67;;;1.42;;
72408;SDS011;60402;48.082;11.628;2024-03-22T15:05:29;2.72;;;1.20;;
72408;SDS011;60402;48.082;11.628;2024-03-22T15:08:16;4.47;;;1.33;;
72408;SDS011;60402;48.082;11.628;2024-03-22T15:11:02;3.00;;;1.17;;
72408;SDS011;60402;48.082;11.628;2024-03-22T15:13:48;3.05;;;1.27;;
72408;SDS011;60402;48.082;11.628;2024-03-22T15:16:33;2.45;;;1.10;;
72408;SDS011;60402;48.082;11.628;2024-03-22T15:19:19;2.17;;;1.10;;
72408;SDS011;60402;48.082;11.628;2024-03-22T15:22:05;1.75;;;0.85;;
72408;SDS011;60402;48.082;11.628;2024-03-22T15:24:51;1.30;;;0.65;;
72408;SDS011;60402;48.082;11.628;2024-03-22T15:27:38;2.35;;;1.00;;
72408;SDS011;60402;48.082;11.628;2024-03-22T15:30:25;1.88;;;0.80;;
72408;SDS011;60402;48.082;11.628;2024-03-22T15:33:10;1.10;;;0.60;;
72408;SDS011;60402;48.082;11.628;2024-03-22T15:35:57;1.75;;;0.70;;
72408;SDS011;60402;48.082;11.628;2024-03-22T15:38:42;2.03;;;0.80;;
72408;SDS011;60402;48.082;11.628;2024-03-22T15:41:30;1.27;;;0.70;;
72408;SDS011;60402;48.082;11.628;2024-03-22T15:44:16;2.25;;;0.63;;
72408;SDS011;60402;48.082;11.628;2024-03-22T15:47:01;1.83;;;0.82;;
72408;SDS011;60402;48.082;11.628;2024-03-22T15:49:47;1.98;;;0.90;;
72408;SDS011;60402;48.082;11.628;2024-03-22T15:52:33;2.55;;;0.77;;
72408;SDS011;60402;48.082;11.628;2024-03-22T15:55:20;1.27;;;0.70;;
72408;SDS011;60402;48.082;11.628;2024-03-22T15:58:06;2.05;;;0.90;;
72408;SDS011;60402;48.082;11.628;2024-03-22T16:00:51;2.47;;;1.25;;
72408;SDS011;60402;48.082;11.628;2024-03-22T16:03:37;1.67;;;0.77;;
72408;SDS011;60402;48.082;11.628;2024-03-22T16:06:22;1.92;;;0.80;;
72408;SDS011;60402;48.082;11.628;2024-03-22T16:09:08;3.20;;;0.70;;
72408;SDS011;60402;48.082;11.628;2024-03-22T16:11:55;2.38;;;0.82;;
72408;SDS011;60402;48.082;11.628;2024-03-22T16:14:41;1.80;;;0.90;;
72408;SDS011;60402;48.082;11.628;2024-03-22T16:17:26;2.15;;;0.82;;
72408;SDS011;60402;48.082;11.628;2024-03-22T16:20:12;1.33;;;0.80;;